Terminal Aerodrome Forecast
Issued by NWS

Home | Current Version | Previous Version | Text Only | Print | Product List | Glossary On
Versions: 1 2 3 4 5 6 7 8 9 10 11 12 13 14 15 16
842
FTUS43 KBIS 271122
TAFMOT
TAF
KMOT 271122Z 2712/2812 17015G24KT P6SM SCT130 BKN250
     FM280100 20010KT P6SM VCTS BKN100CB
     FM280400 30010KT P6SM VCTS BKN100CB
     FM280600 31012KT P6SM BKN080=

USA.gov is the U.S. government's official web portal to all federal, state and local government web resources and services.